sensor_id;sensor_type;location;lat;lon;timestamp;temperature;humidity
21123;DHT22;10719;48.130;11.630;2023-05-18T00:00:22;7.10;99.90
21123;DHT22;10719;48.130;11.630;2023-05-18T00:02:48;7.20;99.90
21123;DHT22;10719;48.130;11.630;2023-05-18T00:05:15;7.20;99.90
21123;DHT22;10719;48.130;11.630;2023-05-18T00:07:42;7.20;99.90
21123;DHT22;10719;48.130;11.630;2023-05-18T00:10:08;7.20;99.90
21123;DHT22;10719;48.130;11.630;2023-05-18T00:12:34;7.20;99.90
21123;DHT22;10719;48.130;11.630;2023-05-18T00:15:00;7.20;99.90
21123;DHT22;10719;48.130;11.630;2023-05-18T00:17:25;7.20;99.90
21123;DHT22;10719;48.130;11.630;2023-05-18T00:19:51;7.30;99.90
21123;DHT22;10719;48.130;11.630;2023-05-18T00:22:16;7.40;99.90
21123;DHT22;10719;48.130;11.630;2023-05-18T00:24:46;7.40;99.90
21123;DHT22;10719;48.130;11.630;2023-05-18T00:27:12;7.40;99.90
21123;DHT22;10719;48.130;11.630;2023-05-18T00:29:38;7.40;99.90
21123;DHT22;10719;48.130;11.630;2023-05-18T00:32:04;7.40;99.90
21123;DHT22;10719;48.130;11.630;2023-05-18T00:34:30;7.40;99.90
21123;DHT22;10719;48.130;11.630;2023-05-18T00:36:56;7.40;99.90
21123;DHT22;10719;48.130;11.630;2023-05-18T00:39:21;7.40;99.90
21123;DHT22;10719;48.130;11.630;2023-05-18T00:41:47;7.40;99.90
21123;DHT22;10719;48.130;11.630;2023-05-18T00:44:13;7.40;99.90
21123;DHT22;10719;48.130;11.630;2023-05-18T00:46:38;7.40;99.90
21123;DHT22;10719;48.130;11.630;2023-05-18T00:49:04;7.30;99.90
21123;DHT22;10719;48.130;11.630;2023-05-18T00:51:31;7.20;99.90
21123;DHT22;10719;48.130;11.630;2023-05-18T00:53:59;7.10;99.90
21123;DHT22;10719;48.130;11.630;2023-05-18T00:56:26;7.10;99.90
21123;DHT22;10719;48.130;11.630;2023-05-18T00:58:53;7.10;99.90
21123;DHT22;10719;48.130;11.630;2023-05-18T01:01:27;7.10;99.90
21123;DHT22;10719;48.130;11.630;2023-05-18T01:03:54;7.10;99.90
21123;DHT22;10719;48.130;11.630;2023-05-18T01:06:21;7.10;99.90
21123;DHT22;10719;48.130;11.630;2023-05-18T01:08:51;7.10;99.90
21123;DHT22;10719;48.130;11.630;2023-05-18T01:14:08;7.10;99.90
21123;DHT22;10719;48.130;11.630;2023-05-18T01:22:43;6.80;99.90
21123;DHT22;10719;48.130;11.630;2023-05-18T01:27:49;6.80;99.90
21123;DHT22;10719;48.130;11.630;2023-05-18T01:30:15;6.80;99.90
21123;DHT22;10719;48.130;11.630;2023-05-18T01:32:44;6.80;99.90
21123;DHT22;10719;48.130;11.630;2023-05-18T01:35:10;6.80;99.90
21123;DHT22;10719;48.130;11.630;2023-05-18T01:37:36;6.70;99.90
21123;DHT22;10719;48.130;11.630;2023-05-18T01:40:03;6.70;99.90
21123;DHT22;10719;48.130;11.630;2023-05-18T01:42:30;6.60;99.90
21123;DHT22;10719;48.130;11.630;2023-05-18T01:45:02;6.50;99.90
21123;DHT22;10719;48.130;11.630;2023-05-18T01:47:32;6.50;99.90
21123;DHT22;10719;48.130;11.630;2023-05-18T01:50:16;6.60;99.90
21123;DHT22;10719;48.130;11.630;2023-05-18T01:52:43;6.60;99.90
21123;DHT22;10719;48.130;11.630;2023-05-18T01:55:11;6.50;99.90
21123;DHT22;10719;48.130;11.630;2023-05-18T01:57:40;6.50;99.90
21123;DHT22;10719;48.130;11.630;2023-05-18T02:00:08;6.40;99.90
21123;DHT22;10719;48.130;11.630;2023-05-18T02:02:34;6.40;99.90
21123;DHT22;10719;48.130;11.630;2023-05-18T02:05:00;6.30;99.90
21123;DHT22;10719;48.130;11.630;2023-05-18T02:07:26;6.40;99.90
21123;DHT22;10719;48.130;11.630;2023-05-18T02:09:52;6.40;99.90
21123;DHT22;10719;48.130;11.630;2023-05-18T02:12:17;6.40;99.90
21123;DHT22;10719;48.130;11.630;2023-05-18T02:14:43;6.30;99.90
21123;DHT22;10719;48.130;11.630;2023-05-18T02:17:09;6.30;99.90
21123;DHT22;10719;48.130;11.630;2023-05-18T02:19:34;6.30;99.90
21123;DHT22;10719;48.130;11.630;2023-05-18T02:22:06;6.30;99.90
21123;DHT22;10719;48.130;11.630;2023-05-18T02:24:33;6.40;99.90
21123;DHT22;10719;48.130;11.630;2023-05-18T02:26:58;6.40;99.90
21123;DHT22;10719;48.130;11.630;2023-05-18T02:29:24;6.40;99.90
21123;DHT22;10719;48.130;11.630;2023-05-18T02:31:50;6.50;99.90
21123;DHT22;10719;48.130;11.630;2023-05-18T02:34:15;6.40;99.90
21123;DHT22;10719;48.130;11.630;2023-05-18T02:36:41;6.40;99.90
21123;DHT22;10719;48.130;11.630;2023-05-18T02:39:10;6.40;99.90
21123;DHT22;10719;48.130;11.630;2023-05-18T02:41:36;6.30;99.90
21123;DHT22;10719;48.130;11.630;2023-05-18T02:44:03;6.30;99.90
21123;DHT22;10719;48.130;11.630;2023-05-18T02:46:29;6.30;99.90
21123;DHT22;10719;48.130;11.630;2023-05-18T02:48:55;6.40;99.90
21123;DHT22;10719;48.130;11.630;2023-05-18T02:51:21;6.40;99.90
21123;DHT22;10719;48.130;11.630;2023-05-18T02:53:47;6.30;99.90
21123;DHT22;10719;48.130;11.630;2023-05-18T02:56:13;6.40;99.90
21123;DHT22;10719;48.130;11.630;2023-05-18T02:58:39;6.30;99.90
21123;DHT22;10719;48.130;11.630;2023-05-18T03:01:05;6.10;99.90
21123;DHT22;10719;48.130;11.630;2023-05-18T03:03:33;6.00;99.90
21123;DHT22;10719;48.130;11.630;2023-05-18T03:06:02;6.20;99.90
21123;DHT22;10719;48.130;11.630;2023-05-18T03:08:28;6.10;99.90
21123;DHT22;10719;48.130;11.630;2023-05-18T03:10:56;6.20;99.90
21123;DHT22;10719;48.130;11.630;2023-05-18T03:13:22;6.20;99.90
21123;DHT22;10719;48.130;11.630;2023-05-18T03:15:48;6.00;99.90
21123;DHT22;10719;48.130;11.630;2023-05-18T03:18:15;6.10;99.90
21123;DHT22;10719;48.130;11.630;2023-05-18T03:20:40;6.10;99.90
21123;DHT22;10719;48.130;11.630;2023-05-18T03:23:06;6.00;99.90
21123;DHT22;10719;48.130;11.630;2023-05-18T03:25:32;6.00;99.90
21123;DHT22;10719;48.130;11.630;2023-05-18T03:27:58;6.00;99.90
21123;DHT22;10719;48.130;11.630;2023-05-18T03:30:23;6.00;99.90
21123;DHT22;10719;48.130;11.630;2023-05-18T03:32:49;5.80;99.90
21123;DHT22;10719;48.130;11.630;2023-05-18T03:35:15;5.80;99.90
21123;DHT22;10719;48.130;11.630;2023-05-18T03:37:41;5.80;99.90
21123;DHT22;10719;48.130;11.630;2023-05-18T03:40:11;5.70;99.90
21123;DHT22;10719;48.130;11.630;2023-05-18T03:42:38;5.70;99.90
21123;DHT22;10719;48.130;11.630;2023-05-18T03:45:04;5.70;99.90
21123;DHT22;10719;48.130;11.630;2023-05-18T03:47:30;5.80;99.90
21123;DHT22;10719;48.130;11.630;2023-05-18T03:49:56;5.70;99.90
21123;DHT22;10719;48.130;11.630;2023-05-18T03:52:22;5.70;99.90
21123;DHT22;10719;48.130;11.630;2023-05-18T03:54:48;5.70;99.90
21123;DHT22;10719;48.130;11.630;2023-05-18T03:57:17;5.80;99.90
21123;DHT22;10719;48.130;11.630;2023-05-18T03:59:44;5.70;99.90
21123;DHT22;10719;48.130;11.630;2023-05-18T04:02:10;5.70;99.90
21123;DHT22;10719;48.130;11.630;2023-05-18T04:04:36;5.80;99.90
21123;DHT22;10719;48.130;11.630;2023-05-18T04:07:06;5.80;99.90
21123;DHT22;10719;48.130;11.630;2023-05-18T04:09:32;5.80;99.90
21123;DHT22;10719;48.130;11.630;2023-05-18T04:11:58;5.80;99.90
21123;DHT22;10719;48.130;11.630;2023-05-18T04:14:23;5.90;99.90
21123;DHT22;10719;48.130;11.630;2023-05-18T04:16:52;5.80;99.90
21123;DHT22;10719;48.130;11.630;2023-05-18T04:19:18;5.90;99.90
21123;DHT22;10719;48.130;11.630;2023-05-18T04:21:46;5.90;99.90
21123;DHT22;10719;48.130;11.630;2023-05-18T04:24:12;5.90;99.90
21123;DHT22;10719;48.130;11.630;2023-05-18T04:26:40;6.00;99.90
21123;DHT22;10719;48.130;11.630;2023-05-18T04:29:07;6.10;99.90
21123;DHT22;10719;48.130;11.630;2023-05-18T04:31:37;6.10;99.90
21123;DHT22;10719;48.130;11.630;2023-05-18T04:34:06;6.10;99.90
21123;DHT22;10719;48.130;11.630;2023-05-18T04:36:33;6.10;99.90
21123;DHT22;10719;48.130;11.630;2023-05-18T04:39:00;6.10;99.90
21123;DHT22;10719;48.130;11.630;2023-05-18T04:41:32;6.20;99.90
21123;DHT22;10719;48.130;11.630;2023-05-18T04:43:58;6.20;99.90
21123;DHT22;10719;48.130;11.630;2023-05-18T04:46:25;6.30;99.90
21123;DHT22;10719;48.130;11.630;2023-05-18T04:48:51;6.40;99.90
21123;DHT22;10719;48.130;11.630;2023-05-18T04:51:18;6.40;99.90
21123;DHT22;10719;48.130;11.630;2023-05-18T04:53:46;6.40;99.90
21123;DHT22;10719;48.130;11.630;2023-05-18T04:56:18;6.50;99.90
21123;DHT22;10719;48.130;11.630;2023-05-18T04:58:47;6.50;99.90
21123;DHT22;10719;48.130;11.630;2023-05-18T05:01:14;6.50;99.90
21123;DHT22;10719;48.130;11.630;2023-05-18T05:03:40;6.60;99.90
21123;DHT22;10719;48.130;11.630;2023-05-18T05:06:07;6.70;99.90
21123;DHT22;10719;48.130;11.630;2023-05-18T05:08:33;6.80;99.90
21123;DHT22;10719;48.130;11.630;2023-05-18T05:10:59;6.80;99.90
21123;DHT22;10719;48.130;11.630;2023-05-18T05:13:25;6.90;99.90
21123;DHT22;10719;48.130;11.630;2023-05-18T05:15:51;7.00;99.90
21123;DHT22;10719;48.130;11.630;2023-05-18T05:18:16;7.10;99.90
21123;DHT22;10719;48.130;11.630;2023-05-18T05:20:42;7.10;99.90
21123;DHT22;10719;48.130;11.630;2023-05-18T05:23:08;7.20;99.90
21123;DHT22;10719;48.130;11.630;2023-05-18T05:25:33;7.30;99.90
21123;DHT22;10719;48.130;11.630;2023-05-18T05:27:59;7.40;99.90
21123;DHT22;10719;48.130;11.630;2023-05-18T05:30:25;7.50;99.90
21123;DHT22;10719;48.130;11.630;2023-05-18T05:32:50;7.50;99.90
21123;DHT22;10719;48.130;11.630;2023-05-18T05:35:16;7.60;99.90
21123;DHT22;10719;48.130;11.630;2023-05-18T05:37:41;7.60;99.90
21123;DHT22;10719;48.130;11.630;2023-05-18T05:40:07;7.70;99.90
21123;DHT22;10719;48.130;11.630;2023-05-18T05:42:34;7.70;99.90
21123;DHT22;10719;48.130;11.630;2023-05-18T05:45:00;7.80;99.90
21123;DHT22;10719;48.130;11.630;2023-05-18T05:47:26;7.90;99.90
21123;DHT22;10719;48.130;11.630;2023-05-18T05:49:51;8.00;99.90
21123;DHT22;10719;48.130;11.630;2023-05-18T05:52:17;8.10;99.90
21123;DHT22;10719;48.130;11.630;2023-05-18T05:54:42;8.20;99.90
21123;DHT22;10719;48.130;11.630;2023-05-18T05:57:08;8.20;99.90
21123;DHT22;10719;48.130;11.630;2023-05-18T05:59:34;8.30;99.90
21123;DHT22;10719;48.130;11.630;2023-05-18T06:02:00;8.40;99.90
21123;DHT22;10719;48.130;11.630;2023-05-18T06:04:26;8.40;99.90
21123;DHT22;10719;48.130;11.630;2023-05-18T06:06:51;8.50;99.90
21123;DHT22;10719;48.130;11.630;2023-05-18T06:09:18;8.60;99.90
21123;DHT22;10719;48.130;11.630;2023-05-18T06:11:44;8.70;99.90
21123;DHT22;10719;48.130;11.630;2023-05-18T06:14:10;8.80;99.90
21123;DHT22;10719;48.130;11.630;2023-05-18T06:16:36;8.90;99.90
21123;DHT22;10719;48.130;11.630;2023-05-18T06:19:02;9.00;99.90
21123;DHT22;10719;48.130;11.630;2023-05-18T06:21:28;9.00;99.90
21123;DHT22;10719;48.130;11.630;2023-05-18T06:23:54;9.00;99.90
21123;DHT22;10719;48.130;11.630;2023-05-18T06:26:19;9.00;99.90
21123;DHT22;10719;48.130;11.630;2023-05-18T06:28:47;9.10;99.90
21123;DHT22;10719;48.130;11.630;2023-05-18T06:31:13;9.10;99.90
21123;DHT22;10719;48.130;11.630;2023-05-18T06:33:39;9.10;99.90
21123;DHT22;10719;48.130;11.630;2023-05-18T06:36:04;9.10;99.90
21123;DHT22;10719;48.130;11.630;2023-05-18T06:38:30;9.20;99.90
21123;DHT22;10719;48.130;11.630;2023-05-18T06:40:56;9.30;99.90
21123;DHT22;10719;48.130;11.630;2023-05-18T06:43:21;9.30;99.90
21123;DHT22;10719;48.130;11.630;2023-05-18T06:45:49;9.50;99.90
21123;DHT22;10719;48.130;11.630;2023-05-18T06:48:15;9.50;99.90
21123;DHT22;10719;48.130;11.630;2023-05-18T06:50:40;9.70;99.90
21123;DHT22;10719;48.130;11.630;2023-05-18T06:53:06;9.80;99.90
21123;DHT22;10719;48.130;11.630;2023-05-18T06:55:32;10.00;99.90
21123;DHT22;10719;48.130;11.630;2023-05-18T06:57:57;10.00;99.90
21123;DHT22;10719;48.130;11.630;2023-05-18T07:00:23;9.90;99.90
21123;DHT22;10719;48.130;11.630;2023-05-18T07:02:49;10.00;99.90
21123;DHT22;10719;48.130;11.630;2023-05-18T07:05:14;10.20;99.90
21123;DHT22;10719;48.130;11.630;2023-05-18T07:07:41;10.40;99.90
21123;DHT22;10719;48.130;11.630;2023-05-18T07:10:07;10.50;99.90
21123;DHT22;10719;48.130;11.630;2023-05-18T07:12:34;10.60;99.90
21123;DHT22;10719;48.130;11.630;2023-05-18T07:14:59;10.70;99.90
21123;DHT22;10719;48.130;11.630;2023-05-18T07:17:25;10.90;99.90
21123;DHT22;10719;48.130;11.630;2023-05-18T07:19:51;11.00;99.90
21123;DHT22;10719;48.130;11.630;2023-05-18T07:22:17;11.00;99.90
21123;DHT22;10719;48.130;11.630;2023-05-18T07:24:42;10.90;99.90
21123;DHT22;10719;48.130;11.630;2023-05-18T07:27:08;11.00;99.90
21123;DHT22;10719;48.130;11.630;2023-05-18T07:29:34;11.20;99.90
21123;DHT22;10719;48.130;11.630;2023-05-18T07:31:59;11.20;99.90
21123;DHT22;10719;48.130;11.630;2023-05-18T07:34:25;11.40;99.90
21123;DHT22;10719;48.130;11.630;2023-05-18T07:36:52;11.30;99.90
21123;DHT22;10719;48.130;11.630;2023-05-18T07:39:18;11.40;99.90
21123;DHT22;10719;48.130;11.630;2023-05-18T07:41:47;11.40;99.90
21123;DHT22;10719;48.130;11.630;2023-05-18T07:44:14;11.40;99.90
21123;DHT22;10719;48.130;11.630;2023-05-18T07:46:39;11.50;99.90
21123;DHT22;10719;48.130;11.630;2023-05-18T07:49:05;11.70;99.90
21123;DHT22;10719;48.130;11.630;2023-05-18T07:51:31;11.80;99.90
21123;DHT22;10719;48.130;11.630;2023-05-18T07:53:57;11.90;99.90
21123;DHT22;10719;48.130;11.630;2023-05-18T07:56:22;11.80;99.90
21123;DHT22;10719;48.130;11.630;2023-05-18T07:58:48;11.80;99.90
21123;DHT22;10719;48.130;11.630;2023-05-18T08:01:14;11.90;99.90
21123;DHT22;10719;48.130;11.630;2023-05-18T08:03:40;12.10;99.90
21123;DHT22;10719;48.130;11.630;2023-05-18T08:06:06;12.20;99.90
21123;DHT22;10719;48.130;11.630;2023-05-18T08:08:31;12.30;99.90
21123;DHT22;10719;48.130;11.630;2023-05-18T08:10:58;12.40;99.90
21123;DHT22;10719;48.130;11.630;2023-05-18T08:13:23;12.30;99.90
21123;DHT22;10719;48.130;11.630;2023-05-18T08:15:49;12.40;99.90
21123;DHT22;10719;48.130;11.630;2023-05-18T08:18:14;12.40;99.90
21123;DHT22;10719;48.130;11.630;2023-05-18T08:20:40;12.70;99.90
21123;DHT22;10719;48.130;11.630;2023-05-18T08:23:06;12.70;99.90
21123;DHT22;10719;48.130;11.630;2023-05-18T08:25:31;13.00;99.90
21123;DHT22;10719;48.130;11.630;2023-05-18T08:27:57;13.10;99.90
21123;DHT22;10719;48.130;11.630;2023-05-18T08:30:22;12.90;99.90
21123;DHT22;10719;48.130;11.630;2023-05-18T08:32:48;12.50;99.90
21123;DHT22;10719;48.130;11.630;2023-05-18T08:35:14;12.10;99.90
21123;DHT22;10719;48.130;11.630;2023-05-18T08:37:39;12.20;99.90
21123;DHT22;10719;48.130;11.630;2023-05-18T08:40:06;12.40;99.90
21123;DHT22;10719;48.130;11.630;2023-05-18T08:42:45;12.40;99.90
21123;DHT22;10719;48.130;11.630;2023-05-18T08:45:17;12.40;99.90
21123;DHT22;10719;48.130;11.630;2023-05-18T08:47:46;12.30;99.90
21123;DHT22;10719;48.130;11.630;2023-05-18T08:50:12;12.20;99.90
21123;DHT22;10719;48.130;11.630;2023-05-18T08:52:45;12.40;99.90
21123;DHT22;10719;48.130;11.630;2023-05-18T08:55:11;12.50;99.90
21123;DHT22;10719;48.130;11.630;2023-05-18T08:57:38;12.30;99.90
21123;DHT22;10719;48.130;11.630;2023-05-18T09:00:05;12.20;99.90
21123;DHT22;10719;48.130;11.630;2023-05-18T09:02:32;12.30;99.90
21123;DHT22;10719;48.130;11.630;2023-05-18T09:04:58;12.40;99.90
21123;DHT22;10719;48.130;11.630;2023-05-18T09:07:24;12.80;99.90
21123;DHT22;10719;48.130;11.630;2023-05-18T09:09:53;13.30;99.90
21123;DHT22;10719;48.130;11.630;2023-05-18T09:12:20;13.60;99.90
21123;DHT22;10719;48.130;11.630;2023-05-18T09:14:47;13.60;99.90
21123;DHT22;10719;48.130;11.630;2023-05-18T09:17:13;13.60;99.90
21123;DHT22;10719;48.130;11.630;2023-05-18T09:19:38;13.60;99.90
21123;DHT22;10719;48.130;11.630;2023-05-18T09:22:05;13.70;99.90
21123;DHT22;10719;48.130;11.630;2023-05-18T09:24:32;13.60;99.90
21123;DHT22;10719;48.130;11.630;2023-05-18T09:26:58;13.50;99.90
21123;DHT22;10719;48.130;11.630;2023-05-18T09:29:25;13.40;99.90
21123;DHT22;10719;48.130;11.630;2023-05-18T09:31:50;13.30;99.90
21123;DHT22;10719;48.130;11.630;2023-05-18T09:34:18;13.00;99.90
21123;DHT22;10719;48.130;11.630;2023-05-18T09:36:48;13.20;99.90
21123;DHT22;10719;48.130;11.630;2023-05-18T09:39:17;13.10;99.90
21123;DHT22;10719;48.130;11.630;2023-05-18T09:41:43;13.30;99.90
21123;DHT22;10719;48.130;11.630;2023-05-18T09:44:09;13.20;99.90
21123;DHT22;10719;48.130;11.630;2023-05-18T09:46:37;13.20;99.90
21123;DHT22;10719;48.130;11.630;2023-05-18T09:49:04;12.90;99.90
21123;DHT22;10719;48.130;11.630;2023-05-18T09:51:34;12.70;99.90
21123;DHT22;10719;48.130;11.630;2023-05-18T09:54:00;13.00;99.90
21123;DHT22;10719;48.130;11.630;2023-05-18T09:56:29;13.10;99.90
21123;DHT22;10719;48.130;11.630;2023-05-18T09:58:56;12.90;99.90
21123;DHT22;10719;48.130;11.630;2023-05-18T10:01:22;12.90;99.90
21123;DHT22;10719;48.130;11.630;2023-05-18T10:03:48;13.00;99.90
21123;DHT22;10719;48.130;11.630;2023-05-18T10:06:14;12.80;99.90
21123;DHT22;10719;48.130;11.630;2023-05-18T10:08:44;13.00;99.90
21123;DHT22;10719;48.130;11.630;2023-05-18T10:11:10;13.60;99.90
21123;DHT22;10719;48.130;11.630;2023-05-18T10:13:36;14.40;99.90
21123;DHT22;10719;48.130;11.630;2023-05-18T10:16:04;15.10;99.90
21123;DHT22;10719;48.130;11.630;2023-05-18T10:18:34;15.60;99.90
21123;DHT22;10719;48.130;11.630;2023-05-18T10:21:02;15.50;99.90
21123;DHT22;10719;48.130;11.630;2023-05-18T10:23:35;15.10;99.90
21123;DHT22;10719;48.130;11.630;2023-05-18T10:26:05;14.90;99.90
21123;DHT22;10719;48.130;11.630;2023-05-18T10:28:51;15.10;99.90
21123;DHT22;10719;48.130;11.630;2023-05-18T10:31:17;14.90;99.90
21123;DHT22;10719;48.130;11.630;2023-05-18T10:33:44;14.40;99.90
21123;DHT22;10719;48.130;11.630;2023-05-18T10:36:10;14.40;99.90
21123;DHT22;10719;48.130;11.630;2023-05-18T10:38:37;13.90;99.90
21123;DHT22;10719;48.130;11.630;2023-05-18T10:41:08;13.50;99.90
21123;DHT22;10719;48.130;11.630;2023-05-18T10:43:36;13.60;99.90
21123;DHT22;10719;48.130;11.630;2023-05-18T10:46:04;13.50;99.90
21123;DHT22;10719;48.130;11.630;2023-05-18T10:48:37;13.70;99.90
21123;DHT22;10719;48.130;11.630;2023-05-18T10:51:06;13.60;99.90
21123;DHT22;10719;48.130;11.630;2023-05-18T10:53:32;13.60;99.90
21123;DHT22;10719;48.130;11.630;2023-05-18T10:55:58;13.50;99.90
21123;DHT22;10719;48.130;11.630;2023-05-18T10:58:28;13.40;99.90
21123;DHT22;10719;48.130;11.630;2023-05-18T11:00:57;13.30;99.90
21123;DHT22;10719;48.130;11.630;2023-05-18T11:03:24;13.20;99.90
21123;DHT22;10719;48.130;11.630;2023-05-18T11:06:05;13.40;99.90
21123;DHT22;10719;48.130;11.630;2023-05-18T11:08:32;13.30;99.90
21123;DHT22;10719;48.130;11.630;2023-05-18T11:11:02;13.30;99.90
21123;DHT22;10719;48.130;11.630;2023-05-18T11:13:33;13.20;99.90
21123;DHT22;10719;48.130;11.630;2023-05-18T11:18:40;13.20;99.90
21123;DHT22;10719;48.130;11.630;2023-05-18T11:26:39;13.60;99.90
21123;DHT22;10719;48.130;11.630;2023-05-18T11:29:39;13.70;99.90
21123;DHT22;10719;48.130;11.630;2023-05-18T11:32:25;14.30;99.90
21123;DHT22;10719;48.130;11.630;2023-05-18T11:34:53;14.60;99.90
21123;DHT22;10719;48.130;11.630;2023-05-18T11:37:54;14.40;99.90
21123;DHT22;10719;48.130;11.630;2023-05-18T11:43:20;14.20;99.90
21123;DHT22;10719;48.130;11.630;2023-05-18T11:45:57;14.00;99.90
21123;DHT22;10719;48.130;11.630;2023-05-18T11:48:26;14.30;99.90
21123;DHT22;10719;48.130;11.630;2023-05-18T11:50:54;14.20;99.90
21123;DHT22;10719;48.130;11.630;2023-05-18T11:53:29;14.30;99.90
21123;DHT22;10719;48.130;11.630;2023-05-18T11:55:55;14.70;99.90
21123;DHT22;10719;48.130;11.630;2023-05-18T11:58:24;15.20;99.90
21123;DHT22;10719;48.130;11.630;2023-05-18T12:00:50;15.40;99.90
21123;DHT22;10719;48.130;11.630;2023-05-18T12:03:16;15.40;99.90
21123;DHT22;10719;48.130;11.630;2023-05-18T12:05:42;14.70;99.90
21123;DHT22;10719;48.130;11.630;2023-05-18T12:08:18;15.40;99.90
21123;DHT22;10719;48.130;11.630;2023-05-18T12:10:48;15.80;99.90
21123;DHT22;10719;48.130;11.630;2023-05-18T12:13:16;15.20;99.90
21123;DHT22;10719;48.130;11.630;2023-05-18T12:15:42;15.70;99.90
21123;DHT22;10719;48.130;11.630;2023-05-18T12:18:09;17.20;99.90
21123;DHT22;10719;48.130;11.630;2023-05-18T12:20:38;18.50;99.90
21123;DHT22;10719;48.130;11.630;2023-05-18T12:23:04;19.40;99.90
21123;DHT22;10719;48.130;11.630;2023-05-18T12:25:30;18.10;99.90
21123;DHT22;10719;48.130;11.630;2023-05-18T12:27:55;16.50;99.90
21123;DHT22;10719;48.130;11.630;2023-05-18T12:30:25;17.20;99.90
21123;DHT22;10719;48.130;11.630;2023-05-18T12:32:59;17.90;99.90
21123;DHT22;10719;48.130;11.630;2023-05-18T12:35:26;17.60;99.90
21123;DHT22;10719;48.130;11.630;2023-05-18T12:37:52;17.00;99.90
21123;DHT22;10719;48.130;11.630;2023-05-18T12:40:22;15.80;99.90
21123;DHT22;10719;48.130;11.630;2023-05-18T12:42:56;15.10;99.90
21123;DHT22;10719;48.130;11.630;2023-05-18T12:45:29;15.70;99.90
21123;DHT22;10719;48.130;11.630;2023-05-18T12:48:05;15.90;99.90
21123;DHT22;10719;48.130;11.630;2023-05-18T12:50:31;15.70;99.90
21123;DHT22;10719;48.130;11.630;2023-05-18T12:52:56;15.50;99.90
21123;DHT22;10719;48.130;11.630;2023-05-18T12:55:22;14.70;99.90
21123;DHT22;10719;48.130;11.630;2023-05-18T12:58:13;14.40;99.90
21123;DHT22;10719;48.130;11.630;2023-05-18T13:00:43;14.30;99.90
21123;DHT22;10719;48.130;11.630;2023-05-18T13:03:13;14.20;99.90
21123;DHT22;10719;48.130;11.630;2023-05-18T13:05:40;14.10;99.90
21123;DHT22;10719;48.130;11.630;2023-05-18T13:08:07;14.20;99.90
21123;DHT22;10719;48.130;11.630;2023-05-18T13:10:33;14.10;99.90
21123;DHT22;10719;48.130;11.630;2023-05-18T13:12:59;14.00;99.90
21123;DHT22;10719;48.130;11.630;2023-05-18T13:15:38;14.00;99.90
21123;DHT22;10719;48.130;11.630;2023-05-18T13:18:06;13.90;99.90
21123;DHT22;10719;48.130;11.630;2023-05-18T13:20:45;13.70;99.90
21123;DHT22;10719;48.130;11.630;2023-05-18T13:23:15;13.50;99.90
21123;DHT22;10719;48.130;11.630;2023-05-18T13:25:41;13.50;99.90
21123;DHT22;10719;48.130;11.630;2023-05-18T13:28:09;13.70;99.90
21123;DHT22;10719;48.130;11.630;2023-05-18T13:30:35;13.70;99.90
21123;DHT22;10719;48.130;11.630;2023-05-18T13:33:01;13.60;99.90
21123;DHT22;10719;48.130;11.630;2023-05-18T13:35:27;13.60;99.90
21123;DHT22;10719;48.130;11.630;2023-05-18T13:37:53;13.80;99.90
21123;DHT22;10719;48.130;11.630;2023-05-18T13:40:20;13.70;99.90
21123;DHT22;10719;48.130;11.630;2023-05-18T13:42:46;13.80;99.90
21123;DHT22;10719;48.130;11.630;2023-05-18T13:45:13;13.90;99.90
21123;DHT22;10719;48.130;11.630;2023-05-18T13:47:39;14.10;99.90
21123;DHT22;10719;48.130;11.630;2023-05-18T13:50:06;14.30;99.90
21123;DHT22;10719;48.130;11.630;2023-05-18T13:52:33;14.30;99.90
21123;DHT22;10719;48.130;11.630;2023-05-18T13:55:00;14.50;99.90
21123;DHT22;10719;48.130;11.630;2023-05-18T13:57:25;14.40;99.90
21123;DHT22;10719;48.130;11.630;2023-05-18T13:59:52;14.20;99.90
21123;DHT22;10719;48.130;11.630;2023-05-18T14:02:18;14.30;99.90
21123;DHT22;10719;48.130;11.630;2023-05-18T14:04:43;14.30;99.90
21123;DHT22;10719;48.130;11.630;2023-05-18T14:07:09;14.30;99.90
21123;DHT22;10719;48.130;11.630;2023-05-18T14:09:35;14.10;99.90
21123;DHT22;10719;48.130;11.630;2023-05-18T14:12:01;13.90;99.90
21123;DHT22;10719;48.130;11.630;2023-05-18T14:14:29;13.80;99.90
21123;DHT22;10719;48.130;11.630;2023-05-18T14:16:55;13.60;99.90
21123;DHT22;10719;48.130;11.630;2023-05-18T14:19:20;13.50;99.90
21123;DHT22;10719;48.130;11.630;2023-05-18T14:21:46;13.60;99.90
21123;DHT22;10719;48.130;11.630;2023-05-18T14:24:11;13.70;99.90
21123;DHT22;10719;48.130;11.630;2023-05-18T14:26:40;13.70;99.90
21123;DHT22;10719;48.130;11.630;2023-05-18T14:29:05;13.60;99.90
21123;DHT22;10719;48.130;11.630;2023-05-18T14:31:32;13.60;99.90
21123;DHT22;10719;48.130;11.630;2023-05-18T14:33:57;13.50;99.90
21123;DHT22;10719;48.130;11.630;2023-05-18T14:36:23;13.40;99.90
21123;DHT22;10719;48.130;11.630;2023-05-18T14:38:49;13.30;99.90
21123;DHT22;10719;48.130;11.630;2023-05-18T14:41:14;13.20;99.90
21123;DHT22;10719;48.130;11.630;2023-05-18T14:43:40;13.20;99.90
21123;DHT22;10719;48.130;11.630;2023-05-18T14:46:06;13.30;99.90
21123;DHT22;10719;48.130;11.630;2023-05-18T14:48:32;13.30;99.90
21123;DHT22;10719;48.130;11.630;2023-05-18T14:50:57;13.20;99.90
21123;DHT22;10719;48.130;11.630;2023-05-18T14:53:23;13.20;99.90
21123;DHT22;10719;48.130;11.630;2023-05-18T14:55:49;13.10;99.90
21123;DHT22;10719;48.130;11.630;2023-05-18T14:58:14;13.00;99.90
21123;DHT22;10719;48.130;11.630;2023-05-18T15:00:41;13.00;99.90
21123;DHT22;10719;48.130;11.630;2023-05-18T15:03:06;13.00;99.90
21123;DHT22;10719;48.130;11.630;2023-05-18T15:05:33;13.00;99.90
21123;DHT22;10719;48.130;11.630;2023-05-18T15:07:59;13.00;99.90
21123;DHT22;10719;48.130;11.630;2023-05-18T15:10:24;13.00;99.90
21123;DHT22;10719;48.130;11.630;2023-05-18T15:12:50;13.00;99.90
21123;DHT22;10719;48.130;11.630;2023-05-18T15:15:16;13.10;99.90
21123;DHT22;10719;48.130;11.630;2023-05-18T15:17:41;13.10;99.90
21123;DHT22;10719;48.130;11.630;2023-05-18T15:20:08;13.20;99.90
21123;DHT22;10719;48.130;11.630;2023-05-18T15:22:34;13.10;99.90
21123;DHT22;10719;48.130;11.630;2023-05-18T15:25:03;13.20;99.90
21123;DHT22;10719;48.130;11.630;2023-05-18T15:27:34;13.10;99.90
21123;DHT22;10719;48.130;11.630;2023-05-18T15:30:00;13.10;99.90
21123;DHT22;10719;48.130;11.630;2023-05-18T15:32:25;13.10;99.90
21123;DHT22;10719;48.130;11.630;2023-05-18T15:34:51;13.10;99.90
21123;DHT22;10719;48.130;11.630;2023-05-18T15:37:17;13.00;99.90
21123;DHT22;10719;48.130;11.630;2023-05-18T15:39:43;13.00;99.90
21123;DHT22;10719;48.130;11.630;2023-05-18T15:42:09;12.90;99.90
21123;DHT22;10719;48.130;11.630;2023-05-18T15:44:34;12.80;99.90